sensor_id;sensor_type;location;lat;lon;timestamp;temperature;humidity
51637;DHT22;37713;53.254;6.460;2022-12-07T00:02:20;3.50;99.90
51637;DHT22;37713;53.254;6.460;2022-12-07T00:04:46;3.40;99.90
51637;DHT22;37713;53.254;6.460;2022-12-07T00:07:13;3.40;99.90
51637;DHT22;37713;53.254;6.460;2022-12-07T00:09:39;3.30;99.90
51637;DHT22;37713;53.254;6.460;2022-12-07T00:12:07;3.30;99.90
51637;DHT22;37713;53.254;6.460;2022-12-07T00:14:33;3.40;99.90
51637;DHT22;37713;53.254;6.460;2022-12-07T00:16:59;3.30;99.90
51637;DHT22;37713;53.254;6.460;2022-12-07T00:19:25;3.40;99.90
51637;DHT22;37713;53.254;6.460;2022-12-07T00:21:50;3.30;99.90
51637;DHT22;37713;53.254;6.460;2022-12-07T00:24:16;3.30;99.90
51637;DHT22;37713;53.254;6.460;2022-12-07T00:26:42;3.40;99.90
51637;DHT22;37713;53.254;6.460;2022-12-07T00:29:16;3.30;99.90
51637;DHT22;37713;53.254;6.460;2022-12-07T00:31:42;3.40;99.90
51637;DHT22;37713;53.254;6.460;2022-12-07T00:34:13;3.40;99.90
51637;DHT22;37713;53.254;6.460;2022-12-07T00:36:39;3.30;99.90
51637;DHT22;37713;53.254;6.460;2022-12-07T00:39:05;3.30;99.90
51637;DHT22;37713;53.254;6.460;2022-12-07T00:41:31;3.40;99.90
51637;DHT22;37713;53.254;6.460;2022-12-07T00:43:57;3.70;99.90
51637;DHT22;37713;53.254;6.460;2022-12-07T00:46:24;3.70;99.90
51637;DHT22;37713;53.254;6.460;2022-12-07T00:48:50;3.70;99.90
51637;DHT22;37713;53.254;6.460;2022-12-07T00:51:19;3.80;99.90
51637;DHT22;37713;53.254;6.460;2022-12-07T00:53:45;3.80;99.90
51637;DHT22;37713;53.254;6.460;2022-12-07T00:56:13;3.90;99.90
51637;DHT22;37713;53.254;6.460;2022-12-07T00:58:39;3.90;99.90
51637;DHT22;37713;53.254;6.460;2022-12-07T01:01:07;4.00;99.90
51637;DHT22;37713;53.254;6.460;2022-12-07T01:03:33;3.90;99.90
51637;DHT22;37713;53.254;6.460;2022-12-07T01:06:00;4.10;99.90
51637;DHT22;37713;53.254;6.460;2022-12-07T01:08:27;3.80;99.90
51637;DHT22;37713;53.254;6.460;2022-12-07T01:11:06;3.80;99.90
51637;DHT22;37713;53.254;6.460;2022-12-07T01:13:34;3.80;99.90
51637;DHT22;37713;53.254;6.460;2022-12-07T01:16:01;3.80;99.90
51637;DHT22;37713;53.254;6.460;2022-12-07T01:18:29;3.80;99.90
51637;DHT22;37713;53.254;6.460;2022-12-07T01:21:02;3.70;99.90
51637;DHT22;37713;53.254;6.460;2022-12-07T01:23:30;3.60;99.90
51637;DHT22;37713;53.254;6.460;2022-12-07T01:26:01;3.70;99.90
51637;DHT22;37713;53.254;6.460;2022-12-07T01:28:28;3.70;99.90
51637;DHT22;37713;53.254;6.460;2022-12-07T01:31:00;3.60;99.90
51637;DHT22;37713;53.254;6.460;2022-12-07T01:33:28;3.70;99.90
51637;DHT22;37713;53.254;6.460;2022-12-07T01:35:59;3.70;99.90
51637;DHT22;37713;53.254;6.460;2022-12-07T01:38:25;3.80;99.90
51637;DHT22;37713;53.254;6.460;2022-12-07T01:40:55;3.80;99.90
51637;DHT22;37713;53.254;6.460;2022-12-07T01:43:22;3.90;99.90
51637;DHT22;37713;53.254;6.460;2022-12-07T01:45:49;3.80;99.90
51637;DHT22;37713;53.254;6.460;2022-12-07T01:48:17;3.90;99.90
51637;DHT22;37713;53.254;6.460;2022-12-07T01:50:48;3.70;99.90
51637;DHT22;37713;53.254;6.460;2022-12-07T01:53:16;3.70;99.90
51637;DHT22;37713;53.254;6.460;2022-12-07T01:55:46;3.60;99.90
51637;DHT22;37713;53.254;6.460;2022-12-07T01:58:13;3.60;99.90
51637;DHT22;37713;53.254;6.460;2022-12-07T02:00:40;3.60;99.90
51637;DHT22;37713;53.254;6.460;2022-12-07T02:03:08;3.50;99.90
51637;DHT22;37713;53.254;6.460;2022-12-07T02:05:37;3.60;99.90
51637;DHT22;37713;53.254;6.460;2022-12-07T02:08:04;3.40;99.90
51637;DHT22;37713;53.254;6.460;2022-12-07T02:10:31;3.30;99.90
51637;DHT22;37713;53.254;6.460;2022-12-07T02:13:16;3.30;99.90
51637;DHT22;37713;53.254;6.460;2022-12-07T02:15:53;3.30;99.90
51637;DHT22;37713;53.254;6.460;2022-12-07T02:29:50;3.10;99.90
51637;DHT22;37713;53.254;6.460;2022-12-07T02:32:38;3.20;99.90
51637;DHT22;37713;53.254;6.460;2022-12-07T02:38:40;3.60;99.90
51637;DHT22;37713;53.254;6.460;2022-12-07T02:41:24;3.90;99.90
51637;DHT22;37713;53.254;6.460;2022-12-07T02:44:04;3.90;99.90
51637;DHT22;37713;53.254;6.460;2022-12-07T02:46:39;3.90;99.90
51637;DHT22;37713;53.254;6.460;2022-12-07T02:49:07;3.80;99.90
51637;DHT22;37713;53.254;6.460;2022-12-07T02:51:33;3.80;99.90
51637;DHT22;37713;53.254;6.460;2022-12-07T02:54:00;3.70;99.90
51637;DHT22;37713;53.254;6.460;2022-12-07T03:10:14;3.60;99.90
51637;DHT22;37713;53.254;6.460;2022-12-07T03:12:58;3.60;99.90
51637;DHT22;37713;53.254;6.460;2022-12-07T03:15:42;3.60;99.90
51637;DHT22;37713;53.254;6.460;2022-12-07T03:18:10;3.70;99.90
51637;DHT22;37713;53.254;6.460;2022-12-07T03:20:38;3.90;99.90
51637;DHT22;37713;53.254;6.460;2022-12-07T03:23:07;4.00;99.90
51637;DHT22;37713;53.254;6.460;2022-12-07T03:25:43;3.90;99.90
51637;DHT22;37713;53.254;6.460;2022-12-07T03:28:13;3.90;99.90
51637;DHT22;37713;53.254;6.460;2022-12-07T03:31:17;3.80;99.90
51637;DHT22;37713;53.254;6.460;2022-12-07T03:34:11;3.70;99.90
51637;DHT22;37713;53.254;6.460;2022-12-07T03:37:16;3.70;99.90
51637;DHT22;37713;53.254;6.460;2022-12-07T03:42:05;3.90;99.90
51637;DHT22;37713;53.254;6.460;2022-12-07T03:44:33;3.90;99.90
51637;DHT22;37713;53.254;6.460;2022-12-07T03:50:03;3.90;99.90
51637;DHT22;37713;53.254;6.460;2022-12-07T03:52:44;3.80;99.90
51637;DHT22;37713;53.254;6.460;2022-12-07T03:57:41;3.70;99.90
51637;DHT22;37713;53.254;6.460;2022-12-07T04:00:10;3.70;99.90
51637;DHT22;37713;53.254;6.460;2022-12-07T04:02:37;3.70;99.90
51637;DHT22;37713;53.254;6.460;2022-12-07T04:05:03;3.60;99.90
51637;DHT22;37713;53.254;6.460;2022-12-07T04:07:29;3.40;99.90
51637;DHT22;37713;53.254;6.460;2022-12-07T04:09:54;3.30;99.90
51637;DHT22;37713;53.254;6.460;2022-12-07T04:12:21;3.30;99.90
51637;DHT22;37713;53.254;6.460;2022-12-07T04:14:47;3.30;99.90
51637;DHT22;37713;53.254;6.460;2022-12-07T04:17:13;3.10;99.90
51637;DHT22;37713;53.254;6.460;2022-12-07T04:19:38;3.10;99.90
51637;DHT22;37713;53.254;6.460;2022-12-07T04:22:05;3.00;99.90
51637;DHT22;37713;53.254;6.460;2022-12-07T04:24:31;3.00;99.90
51637;DHT22;37713;53.254;6.460;2022-12-07T04:26:57;2.90;99.90
51637;DHT22;37713;53.254;6.460;2022-12-07T04:29:23;2.80;99.90
51637;DHT22;37713;53.254;6.460;2022-12-07T04:31:49;2.80;99.90
51637;DHT22;37713;53.254;6.460;2022-12-07T04:34:16;2.90;99.90
51637;DHT22;37713;53.254;6.460;2022-12-07T04:36:42;2.90;99.90
51637;DHT22;37713;53.254;6.460;2022-12-07T04:39:23;3.10;99.90
51637;DHT22;37713;53.254;6.460;2022-12-07T04:41:49;3.20;99.90
51637;DHT22;37713;53.254;6.460;2022-12-07T04:44:16;3.50;99.90
51637;DHT22;37713;53.254;6.460;2022-12-07T04:46:42;3.50;99.90
51637;DHT22;37713;53.254;6.460;2022-12-07T04:49:08;3.50;99.90
51637;DHT22;37713;53.254;6.460;2022-12-07T04:51:34;3.60;99.90
51637;DHT22;37713;53.254;6.460;2022-12-07T04:54:00;3.30;99.90
51637;DHT22;37713;53.254;6.460;2022-12-07T04:56:26;3.20;99.90
51637;DHT22;37713;53.254;6.460;2022-12-07T04:58:53;3.10;99.90
51637;DHT22;37713;53.254;6.460;2022-12-07T05:01:20;3.00;99.90
51637;DHT22;37713;53.254;6.460;2022-12-07T05:03:46;2.80;99.90
51637;DHT22;37713;53.254;6.460;2022-12-07T05:06:12;2.70;99.90
51637;DHT22;37713;53.254;6.460;2022-12-07T05:08:38;2.60;99.90
51637;DHT22;37713;53.254;6.460;2022-12-07T05:11:05;2.40;99.90
51637;DHT22;37713;53.254;6.460;2022-12-07T05:13:31;2.40;99.90
51637;DHT22;37713;53.254;6.460;2022-12-07T05:15:57;2.30;99.90
51637;DHT22;37713;53.254;6.460;2022-12-07T05:18:23;2.20;99.90
51637;DHT22;37713;53.254;6.460;2022-12-07T05:20:49;2.20;99.90
51637;DHT22;37713;53.254;6.460;2022-12-07T05:23:17;2.20;99.90
51637;DHT22;37713;53.254;6.460;2022-12-07T05:25:43;2.10;99.90
51637;DHT22;37713;53.254;6.460;2022-12-07T05:28:09;2.00;99.90
51637;DHT22;37713;53.254;6.460;2022-12-07T05:30:37;2.00;99.90
51637;DHT22;37713;53.254;6.460;2022-12-07T05:33:03;2.00;99.90
51637;DHT22;37713;53.254;6.460;2022-12-07T05:35:30;1.90;99.90
51637;DHT22;37713;53.254;6.460;2022-12-07T05:37:56;1.90;99.90
51637;DHT22;37713;53.254;6.460;2022-12-07T05:40:22;2.00;99.90
51637;DHT22;37713;53.254;6.460;2022-12-07T05:42:48;2.10;99.90
51637;DHT22;37713;53.254;6.460;2022-12-07T05:45:14;2.00;99.90
51637;DHT22;37713;53.254;6.460;2022-12-07T05:47:39;1.90;99.90
51637;DHT22;37713;53.254;6.460;2022-12-07T05:50:06;1.90;99.90
51637;DHT22;37713;53.254;6.460;2022-12-07T05:52:32;2.00;99.90
51637;DHT22;37713;53.254;6.460;2022-12-07T05:54:58;2.00;99.90
51637;DHT22;37713;53.254;6.460;2022-12-07T05:57:23;2.00;99.90
51637;DHT22;37713;53.254;6.460;2022-12-07T05:59:49;2.10;99.90
51637;DHT22;37713;53.254;6.460;2022-12-07T06:02:16;2.00;99.90
51637;DHT22;37713;53.254;6.460;2022-12-07T06:04:46;2.10;99.90
51637;DHT22;37713;53.254;6.460;2022-12-07T06:07:14;2.40;99.90
51637;DHT22;37713;53.254;6.460;2022-12-07T06:09:40;2.70;99.90
51637;DHT22;37713;53.254;6.460;2022-12-07T06:12:08;2.80;99.90
51637;DHT22;37713;53.254;6.460;2022-12-07T06:14:53;2.90;99.90
51637;DHT22;37713;53.254;6.460;2022-12-07T06:17:19;2.80;99.90
51637;DHT22;37713;53.254;6.460;2022-12-07T06:19:45;2.80;99.90
51637;DHT22;37713;53.254;6.460;2022-12-07T06:22:11;2.80;99.90
51637;DHT22;37713;53.254;6.460;2022-12-07T06:24:37;2.70;99.90
51637;DHT22;37713;53.254;6.460;2022-12-07T06:27:03;2.60;99.90
51637;DHT22;37713;53.254;6.460;2022-12-07T06:29:28;2.50;99.90
51637;DHT22;37713;53.254;6.460;2022-12-07T06:31:54;2.40;99.90
51637;DHT22;37713;53.254;6.460;2022-12-07T06:34:21;2.30;99.90
51637;DHT22;37713;53.254;6.460;2022-12-07T06:36:48;2.20;99.90
51637;DHT22;37713;53.254;6.460;2022-12-07T06:39:18;2.10;99.90
51637;DHT22;37713;53.254;6.460;2022-12-07T06:41:44;1.90;99.90
51637;DHT22;37713;53.254;6.460;2022-12-07T06:44:09;1.90;99.90
51637;DHT22;37713;53.254;6.460;2022-12-07T06:46:35;1.80;99.90
51637;DHT22;37713;53.254;6.460;2022-12-07T06:49:02;1.80;99.90
51637;DHT22;37713;53.254;6.460;2022-12-07T06:51:28;1.70;99.90
51637;DHT22;37713;53.254;6.460;2022-12-07T06:53:54;1.70;99.90
51637;DHT22;37713;53.254;6.460;2022-12-07T06:56:19;1.70;99.90
51637;DHT22;37713;53.254;6.460;2022-12-07T06:58:45;1.70;99.90
51637;DHT22;37713;53.254;6.460;2022-12-07T07:01:12;1.70;99.90
51637;DHT22;37713;53.254;6.460;2022-12-07T07:03:39;2.00;99.90
51637;DHT22;37713;53.254;6.460;2022-12-07T07:06:05;2.10;99.90
51637;DHT22;37713;53.254;6.460;2022-12-07T07:08:31;2.40;99.90
51637;DHT22;37713;53.254;6.460;2022-12-07T07:10:57;2.40;99.90
51637;DHT22;37713;53.254;6.460;2022-12-07T07:13:23;2.50;99.90
51637;DHT22;37713;53.254;6.460;2022-12-07T07:15:48;2.40;99.90
51637;DHT22;37713;53.254;6.460;2022-12-07T07:18:14;2.40;99.90
51637;DHT22;37713;53.254;6.460;2022-12-07T07:20:40;2.40;99.90
51637;DHT22;37713;53.254;6.460;2022-12-07T07:23:06;2.50;99.90
51637;DHT22;37713;53.254;6.460;2022-12-07T07:25:32;2.30;99.90
51637;DHT22;37713;53.254;6.460;2022-12-07T07:27:58;2.30;99.90
51637;DHT22;37713;53.254;6.460;2022-12-07T07:30:24;2.30;99.90
51637;DHT22;37713;53.254;6.460;2022-12-07T07:32:50;2.30;99.90
51637;DHT22;37713;53.254;6.460;2022-12-07T07:35:16;2.30;99.90
51637;DHT22;37713;53.254;6.460;2022-12-07T07:37:42;2.30;99.90
51637;DHT22;37713;53.254;6.460;2022-12-07T07:40:09;2.20;99.90
51637;DHT22;37713;53.254;6.460;2022-12-07T07:42:35;2.20;99.90
51637;DHT22;37713;53.254;6.460;2022-12-07T07:45:01;2.10;99.90
51637;DHT22;37713;53.254;6.460;2022-12-07T07:47:27;2.00;99.90
51637;DHT22;37713;53.254;6.460;2022-12-07T07:49:54;2.00;99.90
51637;DHT22;37713;53.254;6.460;2022-12-07T07:52:20;1.90;99.90
51637;DHT22;37713;53.254;6.460;2022-12-07T07:54:45;2.00;99.90
51637;DHT22;37713;53.254;6.460;2022-12-07T07:57:11;2.00;99.90
51637;DHT22;37713;53.254;6.460;2022-12-07T07:59:39;2.10;99.90
51637;DHT22;37713;53.254;6.460;2022-12-07T08:02:05;2.00;99.90
51637;DHT22;37713;53.254;6.460;2022-12-07T08:04:31;2.10;99.90
51637;DHT22;37713;53.254;6.460;2022-12-07T08:06:56;1.90;99.90
51637;DHT22;37713;53.254;6.460;2022-12-07T08:09:22;1.90;99.90
51637;DHT22;37713;53.254;6.460;2022-12-07T08:11:48;1.90;99.90
51637;DHT22;37713;53.254;6.460;2022-12-07T08:14:14;2.00;99.90
51637;DHT22;37713;53.254;6.460;2022-12-07T08:16:39;1.90;99.90
51637;DHT22;37713;53.254;6.460;2022-12-07T08:19:06;2.00;99.90
51637;DHT22;37713;53.254;6.460;2022-12-07T08:21:32;2.00;99.90
51637;DHT22;37713;53.254;6.460;2022-12-07T08:23:57;2.00;99.90
51637;DHT22;37713;53.254;6.460;2022-12-07T08:26:23;2.00;99.90
51637;DHT22;37713;53.254;6.460;2022-12-07T08:28:49;2.00;99.90
51637;DHT22;37713;53.254;6.460;2022-12-07T08:31:17;2.00;99.90
51637;DHT22;37713;53.254;6.460;2022-12-07T08:33:45;2.10;99.90
51637;DHT22;37713;53.254;6.460;2022-12-07T08:36:12;2.30;99.90
51637;DHT22;37713;53.254;6.460;2022-12-07T08:38:39;2.50;99.90
51637;DHT22;37713;53.254;6.460;2022-12-07T08:41:06;2.60;99.90
51637;DHT22;37713;53.254;6.460;2022-12-07T08:43:33;2.70;99.90
51637;DHT22;37713;53.254;6.460;2022-12-07T08:46:12;2.90;99.90
51637;DHT22;37713;53.254;6.460;2022-12-07T08:51:31;3.10;99.90
51637;DHT22;37713;53.254;6.460;2022-12-07T08:53:58;3.10;99.90
51637;DHT22;37713;53.254;6.460;2022-12-07T08:56:26;3.20;99.90
51637;DHT22;37713;53.254;6.460;2022-12-07T08:58:52;3.30;99.90
51637;DHT22;37713;53.254;6.460;2022-12-07T09:01:18;3.40;99.90
51637;DHT22;37713;53.254;6.460;2022-12-07T09:03:44;3.60;99.90
51637;DHT22;37713;53.254;6.460;2022-12-07T09:06:09;3.70;99.90
51637;DHT22;37713;53.254;6.460;2022-12-07T09:08:39;3.80;99.90
51637;DHT22;37713;53.254;6.460;2022-12-07T09:11:05;3.90;99.90
51637;DHT22;37713;53.254;6.460;2022-12-07T09:13:31;4.00;99.90
51637;DHT22;37713;53.254;6.460;2022-12-07T09:15:57;4.10;99.90
51637;DHT22;37713;53.254;6.460;2022-12-07T09:18:23;4.10;99.90
51637;DHT22;37713;53.254;6.460;2022-12-07T09:20:50;4.20;99.90
51637;DHT22;37713;53.254;6.460;2022-12-07T09:23:16;4.20;99.90
51637;DHT22;37713;53.254;6.460;2022-12-07T09:25:42;4.30;99.90
51637;DHT22;37713;53.254;6.460;2022-12-07T09:28:08;4.30;99.90
51637;DHT22;37713;53.254;6.460;2022-12-07T09:30:34;4.30;99.90
51637;DHT22;37713;53.254;6.460;2022-12-07T09:33:00;4.30;99.90
51637;DHT22;37713;53.254;6.460;2022-12-07T09:35:26;4.40;99.90
51637;DHT22;37713;53.254;6.460;2022-12-07T09:37:51;4.30;99.90
51637;DHT22;37713;53.254;6.460;2022-12-07T09:40:19;4.30;99.90
51637;DHT22;37713;53.254;6.460;2022-12-07T09:42:48;4.30;99.90
51637;DHT22;37713;53.254;6.460;2022-12-07T09:45:30;4.30;99.90
51637;DHT22;37713;53.254;6.460;2022-12-07T09:47:58;4.30;99.90
51637;DHT22;37713;53.254;6.460;2022-12-07T09:50:28;4.40;99.90
51637;DHT22;37713;53.254;6.460;2022-12-07T09:53:04;4.40;99.90
51637;DHT22;37713;53.254;6.460;2022-12-07T09:55:33;4.40;99.90
51637;DHT22;37713;53.254;6.460;2022-12-07T09:57:59;4.40;99.90
51637;DHT22;37713;53.254;6.460;2022-12-07T10:00:25;4.40;99.90
51637;DHT22;37713;53.254;6.460;2022-12-07T10:03:01;4.40;99.90
51637;DHT22;37713;53.254;6.460;2022-12-07T10:05:29;4.50;99.90
51637;DHT22;37713;53.254;6.460;2022-12-07T10:07:55;4.50;99.90
51637;DHT22;37713;53.254;6.460;2022-12-07T10:10:33;4.50;99.90
51637;DHT22;37713;53.254;6.460;2022-12-07T10:13:02;4.60;99.90
51637;DHT22;37713;53.254;6.460;2022-12-07T10:18:36;4.80;99.90
51637;DHT22;37713;53.254;6.460;2022-12-07T10:23:35;4.90;99.90
51637;DHT22;37713;53.254;6.460;2022-12-07T10:26:32;5.00;99.90
51637;DHT22;37713;53.254;6.460;2022-12-07T10:31:42;5.20;99.90
51637;DHT22;37713;53.254;6.460;2022-12-07T10:34:32;5.30;99.90
51637;DHT22;37713;53.254;6.460;2022-12-07T10:42:19;5.50;99.90
51637;DHT22;37713;53.254;6.460;2022-12-07T10:44:45;5.60;99.90
51637;DHT22;37713;53.254;6.460;2022-12-07T10:50:06;5.60;99.90
51637;DHT22;37713;53.254;6.460;2022-12-07T10:53:03;5.60;99.90
51637;DHT22;37713;53.254;6.460;2022-12-07T10:55:48;5.60;99.90
51637;DHT22;37713;53.254;6.460;2022-12-07T11:01:36;5.40;99.90
51637;DHT22;37713;53.254;6.460;2022-12-07T11:04:14;5.20;99.90
51637;DHT22;37713;53.254;6.460;2022-12-07T11:07:02;5.00;99.90
51637;DHT22;37713;53.254;6.460;2022-12-07T11:09:44;4.80;99.90
51637;DHT22;37713;53.254;6.460;2022-12-07T11:15:12;4.80;99.90
51637;DHT22;37713;53.254;6.460;2022-12-07T11:17:48;4.70;99.90
51637;DHT22;37713;53.254;6.460;2022-12-07T11:20:50;4.60;99.90
51637;DHT22;37713;53.254;6.460;2022-12-07T11:26:46;4.60;99.90
51637;DHT22;37713;53.254;6.460;2022-12-07T11:35:20;4.70;99.90
51637;DHT22;37713;53.254;6.460;2022-12-07T11:37:51;4.70;99.90
51637;DHT22;37713;53.254;6.460;2022-12-07T11:40:31;4.90;99.90
51637;DHT22;37713;53.254;6.460;2022-12-07T11:43:17;4.90;99.90
51637;DHT22;37713;53.254;6.460;2022-12-07T11:45:48;5.00;99.90
51637;DHT22;37713;53.254;6.460;2022-12-07T11:48:25;5.10;99.90
51637;DHT22;37713;53.254;6.460;2022-12-07T11:50:57;5.10;99.90
51637;DHT22;37713;53.254;6.460;2022-12-07T11:56:10;5.10;99.90
51637;DHT22;37713;53.254;6.460;2022-12-07T12:07:16;5.10;99.90
51637;DHT22;37713;53.254;6.460;2022-12-07T12:10:13;5.10;99.90
51637;DHT22;37713;53.254;6.460;2022-12-07T12:16:31;5.10;99.90
51637;DHT22;37713;53.254;6.460;2022-12-07T12:21:13;5.10;99.90
51637;DHT22;37713;53.254;6.460;2022-12-07T12:23:56;5.10;99.90
51637;DHT22;37713;53.254;6.460;2022-12-07T12:26:26;5.10;99.90
51637;DHT22;37713;53.254;6.460;2022-12-07T12:29:02;5.10;99.90
51637;DHT22;37713;53.254;6.460;2022-12-07T12:31:33;5.20;99.90
51637;DHT22;37713;53.254;6.460;2022-12-07T12:34:03;5.30;99.90
51637;DHT22;37713;53.254;6.460;2022-12-07T12:47:04;5.40;99.90
51637;DHT22;37713;53.254;6.460;2022-12-07T12:49:38;5.40;99.90
51637;DHT22;37713;53.254;6.460;2022-12-07T12:54:41;5.20;99.90
51637;DHT22;37713;53.254;6.460;2022-12-07T12:57:27;5.10;99.90
51637;DHT22;37713;53.254;6.460;2022-12-07T13:02:26;5.10;99.90
51637;DHT22;37713;53.254;6.460;2022-12-07T13:04:55;4.90;99.90
51637;DHT22;37713;53.254;6.460;2022-12-07T13:10:29;4.80;99.90
51637;DHT22;37713;53.254;6.460;2022-12-07T13:18:02;4.70;99.90
51637;DHT22;37713;53.254;6.460;2022-12-07T13:20:53;4.80;99.90
51637;DHT22;37713;53.254;6.460;2022-12-07T13:26:24;4.70;99.90
51637;DHT22;37713;53.254;6.460;2022-12-07T13:29:13;4.60;99.90
51637;DHT22;37713;53.254;6.460;2022-12-07T13:36:58;4.10;99.90
51637;DHT22;37713;53.254;6.460;2022-12-07T13:39:27;4.10;99.90
51637;DHT22;37713;53.254;6.460;2022-12-07T13:41:56;4.00;99.90
51637;DHT22;37713;53.254;6.460;2022-12-07T13:44:24;3.90;99.90
51637;DHT22;37713;53.254;6.460;2022-12-07T13:47:16;4.00;99.90
51637;DHT22;37713;53.254;6.460;2022-12-07T13:49:52;3.80;99.90
51637;DHT22;37713;53.254;6.460;2022-12-07T13:52:29;3.70;99.90
51637;DHT22;37713;53.254;6.460;2022-12-07T13:55:14;3.70;99.90
51637;DHT22;37713;53.254;6.460;2022-12-07T13:57:41;3.70;99.90
51637;DHT22;37713;53.254;6.460;2022-12-07T14:00:19;3.60;99.90
51637;DHT22;37713;53.254;6.460;2022-12-07T14:02:56;3.60;99.90
51637;DHT22;37713;53.254;6.460;2022-12-07T14:05:29;3.60;99.90
51637;DHT22;37713;53.254;6.460;2022-12-07T14:07:59;3.60;99.90
51637;DHT22;37713;53.254;6.460;2022-12-07T14:12:55;3.60;99.90
51637;DHT22;37713;53.254;6.460;2022-12-07T14:15:23;3.50;99.90
51637;DHT22;37713;53.254;6.460;2022-12-07T14:17:52;3.50;99.90
51637;DHT22;37713;53.254;6.460;2022-12-07T14:22:57;3.50;99.90
51637;DHT22;37713;53.254;6.460;2022-12-07T14:25:27;3.50;99.90
51637;DHT22;37713;53.254;6.460;2022-12-07T14:27:58;3.50;99.90
51637;DHT22;37713;53.254;6.460;2022-12-07T14:30:27;3.50;99.90
51637;DHT22;37713;53.254;6.460;2022-12-07T14:32:56;3.50;99.90
51637;DHT22;37713;53.254;6.460;2022-12-07T14:35:23;3.60;99.90
51637;DHT22;37713;53.254;6.460;2022-12-07T14:37:49;3.60;99.90
51637;DHT22;37713;53.254;6.460;2022-12-07T14:40:18;3.60;99.90
51637;DHT22;37713;53.254;6.460;2022-12-07T14:42:46;3.60;99.90
51637;DHT22;37713;53.254;6.460;2022-12-07T14:45:18;3.60;99.90
51637;DHT22;37713;53.254;6.460;2022-12-07T14:47:45;3.60;99.90
51637;DHT22;37713;53.254;6.460;2022-12-07T14:50:15;3.50;99.90
51637;DHT22;37713;53.254;6.460;2022-12-07T14:52:55;3.50;99.90
51637;DHT22;37713;53.254;6.460;2022-12-07T14:55:25;3.50;99.90
51637;DHT22;37713;53.254;6.460;2022-12-07T14:57:51;3.50;99.90
51637;DHT22;37713;53.254;6.460;2022-12-07T15:00:19;3.40;99.90
51637;DHT22;37713;53.254;6.460;2022-12-07T15:02:45;3.30;99.90
51637;DHT22;37713;53.254;6.460;2022-12-07T15:05:11;3.30;99.90
51637;DHT22;37713;53.254;6.460;2022-12-07T15:07:37;3.30;99.90
51637;DHT22;37713;53.254;6.460;2022-12-07T15:10:03;3.10;99.90
51637;DHT22;37713;53.254;6.460;2022-12-07T15:12:29;3.10;99.90
51637;DHT22;37713;53.254;6.460;2022-12-07T15:14:55;3.00;99.90
51637;DHT22;37713;53.254;6.460;2022-12-07T15:17:21;2.90;99.90
51637;DHT22;37713;53.254;6.460;2022-12-07T15:19:46;2.80;99.90
51637;DHT22;37713;53.254;6.460;2022-12-07T15:22:12;2.80;99.90
51637;DHT22;37713;53.254;6.460;2022-12-07T15:24:38;2.70;99.90
51637;DHT22;37713;53.254;6.460;2022-12-07T15:27:04;2.70;99.90
51637;DHT22;37713;53.254;6.460;2022-12-07T15:29:29;2.60;99.90
51637;DHT22;37713;53.254;6.460;2022-12-07T15:31:56;2.70;99.90
51637;DHT22;37713;53.254;6.460;2022-12-07T15:34:23;2.60;99.90
51637;DHT22;37713;53.254;6.460;2022-12-07T15:36:49;2.60;99.90
51637;DHT22;37713;53.254;6.460;2022-12-07T15:39:15;2.60;99.90
51637;DHT22;37713;53.254;6.460;2022-12-07T15:41:41;2.70;99.90
51637;DHT22;37713;53.254;6.460;2022-12-07T15:44:11;2.60;99.90
51637;DHT22;37713;53.254;6.460;2022-12-07T15:46:56;2.60;99.90
51637;DHT22;37713;53.254;6.460;2022-12-07T15:49:22;2.60;99.90
51637;DHT22;37713;53.254;6.460;2022-12-07T15:51:48;2.60;99.90
51637;DHT22;37713;53.254;6.460;2022-12-07T15:54:19;2.60;99.90
51637;DHT22;37713;53.254;6.460;2022-12-07T15:56:45;2.70;99.90
51637;DHT22;37713;53.254;6.460;2022-12-07T15:59:11;2.70;99.90
51637;DHT22;37713;53.254;6.460;2022-12-07T16:01:36;2.70;99.90
51637;DHT22;37713;53.254;6.460;2022-12-07T16:04:02;2.70;99.90
51637;DHT22;37713;53.254;6.460;2022-12-07T16:06:28;2.70;99.90
51637;DHT22;37713;53.254;6.460;2022-12-07T16:08:54;2.70;99.90
51637;DHT22;37713;53.254;6.460;2022-12-07T16:11:20;2.70;99.90
51637;DHT22;37713;53.254;6.460;2022-12-07T16:13:46;2.80;99.90
51637;DHT22;37713;53.254;6.460;2022-12-07T16:16:14;2.80;99.90
51637;DHT22;37713;53.254;6.460;2022-12-07T16:18:42;2.80;99.90
51637;DHT22;37713;53.254;6.460;2022-12-07T16:21:08;2.80;99.90
51637;DHT22;37713;53.254;6.460;2022-12-07T16:23:35;2.70;99.90
51637;DHT22;37713;53.254;6.460;2022-12-07T16:26:08;2.80;99.90
51637;DHT22;37713;53.254;6.460;2022-12-07T16:28:35;2.80;99.90
51637;DHT22;37713;53.254;6.460;2022-12-07T16:31:09;2.70;99.90
51637;DHT22;37713;53.254;6.460;2022-12-07T16:33:36;2.70;99.90
51637;DHT22;37713;53.254;6.460;2022-12-07T16:36:05;2.70;99.90
51637;DHT22;37713;53.254;6.460;2022-12-07T16:38:32;2.70;99.90
51637;DHT22;37713;53.254;6.460;2022-12-07T16:40:57;2.80;99.90
51637;DHT22;37713;53.254;6.460;2022-12-07T16:43:23;2.70;99.90
51637;DHT22;37713;53.254;6.460;2022-12-07T16:45:49;2.70;99.90
51637;DHT22;37713;53.254;6.460;2022-12-07T16:48:15;2.70;99.90
51637;DHT22;37713;53.254;6.460;2022-12-07T16:50:42;2.80;99.90
51637;DHT22;37713;53.254;6.460;2022-12-07T16:53:09;2.90;99.90
51637;DHT22;37713;53.254;6.460;2022-12-07T16:55:42;2.80;99.90
51637;DHT22;37713;53.254;6.460;2022-12-07T16:58:09;2.70;99.90
51637;DHT22;37713;53.254;6.460;2022-12-07T17:00:36;2.80;99.90
51637;DHT22;37713;53.254;6.460;2022-12-07T17:03:03;2.70;99.90
51637;DHT22;37713;53.254;6.460;2022-12-07T17:05:29;2.70;99.90
51637;DHT22;37713;53.254;6.460;2022-12-07T17:07:55;2.70;99.90
51637;DHT22;37713;53.254;6.460;2022-12-07T17:10:21;2.60;99.90
51637;DHT22;37713;53.254;6.460;2022-12-07T17:12:48;2.70;99.90
51637;DHT22;37713;53.254;6.460;2022-12-07T17:15:14;2.70;99.90
51637;DHT22;37713;53.254;6.460;2022-12-07T17:17:46;2.70;99.90
51637;DHT22;37713;53.254;6.460;2022-12-07T17:20:16;2.60;99.90
51637;DHT22;37713;53.254;6.460;2022-12-07T17:22:44;2.60;99.90
51637;DHT22;37713;53.254;6.460;2022-12-07T17:25:10;2.60;99.90
51637;DHT22;37713;53.254;6.460;2022-12-07T17:27:36;2.70;99.90
51637;DHT22;37713;53.254;6.460;2022-12-07T17:30:04;2.80;99.90
51637;DHT22;37713;53.254;6.460;2022-12-07T17:32:30;2.70;99.90
51637;DHT22;37713;53.254;6.460;2022-12-07T17:34:56;2.90;99.90
51637;DHT22;37713;53.254;6.460;2022-12-07T17:37:22;2.80;99.90
51637;DHT22;37713;53.254;6.460;2022-12-07T17:39:47;2.80;99.90
51637;DHT22;37713;53.254;6.460;2022-12-07T17:42:13;2.90;99.90
51637;DHT22;37713;53.254;6.460;2022-12-07T17:44:58;2.90;99.90
51637;DHT22;37713;53.254;6.460;2022-12-07T17:47:24;2.90;99.90
51637;DHT22;37713;53.254;6.460;2022-12-07T17:49:49;2.80;99.90
51637;DHT22;37713;53.254;6.460;2022-12-07T17:52:15;2.80;99.90
51637;DHT22;37713;53.254;6.460;2022-12-07T17:55:00;2.80;99.90
51637;DHT22;37713;53.254;6.460;2022-12-07T17:57:25;2.90;99.90
51637;DHT22;37713;53.254;6.460;2022-12-07T17:59:51;2.80;99.90
51637;DHT22;37713;53.254;6.460;2022-12-07T18:02:17;2.80;99.90
51637;DHT22;37713;53.254;6.460;2022-12-07T18:04:43;2.70;99.90